Time;durP1;ratioP1;P1;durP2;ratioP2;P2;SDS_P1;SDS_P2;PMS_P1;PMS_P2;Temp;Humidity;BMP_temperature;BMP_pressure;BME280_temperature;BME280_humidity;BME280_pressure;Samples;Min_cycle;Max_cycle;Signal;HPM_P1;HPM_P2
2023/12/21 00:02:16;;;;;;;11.10;3.95;;;8.10;99.90;;;;;;7362158;32;20475;-61
2023/12/21 00:06:18;;;;;;;8.07;4.45;;;8.20;99.90;;;;;;7363457;32;20158;-56
2023/12/21 00:10:20;;;;;;;6.28;3.97;;;8.20;99.90;;;;;;7362081;32;20115;-56
2023/12/21 00:14:23;;;;;;;7.57;4.80;;;8.20;99.90;;;;;;7357519;32;20260;-55
2023/12/21 00:18:24;;;;;;;8.80;4.25;;;8.20;99.90;;;;;;7351745;32;20144;-55
2023/12/21 00:22:26;;;;;;;9.80;4.45;;;8.20;99.90;;;;;;7359905;32;20250;-55
2023/12/21 00:26:28;;;;;;;8.45;5.20;;;8.20;99.90;;;;;;7358152;32;20226;-56
2023/12/21 00:30:30;;;;;;;8.85;4.55;;;8.20;99.90;;;;;;7357910;32;20228;-56
2023/12/21 00:34:32;;;;;;;6.05;4.07;;;8.20;99.90;;;;;;7364623;32;20115;-56
2023/12/21 00:38:33;;;;;;;9.60;4.75;;;8.20;99.90;;;;;;7363272;32;20147;-56
2023/12/21 00:42:38;;;;;;;9.50;5.25;;;8.20;99.90;;;;;;7361208;32;20549;-56
2023/12/21 00:46:40;;;;;;;6.37;4.93;;;8.20;99.90;;;;;;7360300;32;20462;-55
2023/12/21 00:50:42;;;;;;;9.05;5.43;;;8.30;99.90;;;;;;7359513;32;20129;-56
2023/12/21 00:54:43;;;;;;;8.90;5.50;;;8.30;99.90;;;;;;7358270;32;20194;-56
2023/12/21 00:58:45;;;;;;;8.10;5.45;;;8.30;99.90;;;;;;7358479;32;20607;-55
2023/12/21 01:02:47;;;;;;;9.50;6.12;;;8.30;99.90;;;;;;7360342;32;20103;-55
2023/12/21 01:06:48;;;;;;;9.85;6.53;;;8.30;99.90;;;;;;7360856;32;20122;-57
2023/12/21 01:10:50;;;;;;;7.87;5.55;;;8.40;99.90;;;;;;7355348;32;20191;-55
2023/12/21 01:14:52;;;;;;;8.60;6.03;;;8.40;99.90;;;;;;7356948;32;20198;-56
2023/12/21 01:18:54;;;;;;;8.50;5.50;;;8.40;99.90;;;;;;7362193;32;20490;-56
2023/12/21 01:22:55;;;;;;;10.30;5.57;;;8.40;99.90;;;;;;7357528;32;20222;-56
2023/12/21 01:26:57;;;;;;;7.10;5.37;;;8.30;99.90;;;;;;7361541;32;20123;-56
2023/12/21 01:30:59;;;;;;;7.75;5.57;;;8.40;99.90;;;;;;7368384;32;20529;-56
2023/12/21 01:35:01;;;;;;;8.85;5.95;;;8.40;99.90;;;;;;7370791;32;20110;-55
2023/12/21 01:39:03;;;;;;;7.97;5.75;;;8.40;99.90;;;;;;7362695;32;20461;-56
2023/12/21 01:43:05;;;;;;;6.25;4.62;;;8.40;99.90;;;;;;7363667;32;20248;-55
2023/12/21 01:47:07;;;;;;;8.85;5.50;;;8.40;99.90;;;;;;7370330;32;20315;-56
2023/12/21 01:51:11;;;;;;;10.73;5.80;;;8.40;99.90;;;;;;7354835;32;20133;-55
2023/12/21 01:55:15;;;;;;;9.13;5.57;;;8.40;99.90;;;;;;7363729;32;20186;-56
2023/12/21 01:59:18;;;;;;;12.27;6.18;;;8.40;99.90;;;;;;7362511;32;20254;-55
2023/12/21 02:03:20;;;;;;;8.00;5.62;;;8.40;99.90;;;;;;7368690;32;20783;-56
2023/12/21 02:07:22;;;;;;;9.10;5.93;;;8.40;99.90;;;;;;7357828;32;20099;-55
2023/12/21 02:11:24;;;;;;;9.82;5.60;;;8.50;99.90;;;;;;7367761;32;20247;-55
2023/12/21 02:15:25;;;;;;;8.00;5.62;;;8.40;99.90;;;;;;7363004;32;20206;-56
2023/12/21 02:19:28;;;;;;;7.37;5.90;;;8.50;99.90;;;;;;7362867;32;20122;-55
2023/12/21 02:23:36;;;;;;;6.25;4.93;;;8.50;99.90;;;;;;7360521;32;20765;-56
2023/12/21 02:27:37;;;;;;;10.25;4.90;;;8.50;99.90;;;;;;7358542;32;20555;-56
2023/12/21 02:31:39;;;;;;;7.03;5.00;;;8.50;99.90;;;;;;7361310;32;20119;-56
2023/12/21 02:35:42;;;;;;;6.60;4.90;;;8.50;99.90;;;;;;7353309;32;20126;-56
2023/12/21 02:39:44;;;;;;;6.47;4.43;;;8.50;99.90;;;;;;7356158;32;20225;-55
2023/12/21 02:43:46;;;;;;;7.00;4.80;;;8.50;99.90;;;;;;7364899;32;20178;-56
2023/12/21 02:47:47;;;;;;;7.07;4.97;;;8.50;99.90;;;;;;7362966;32;20549;-56
2023/12/21 02:51:49;;;;;;;6.75;4.47;;;8.50;99.90;;;;;;7360702;32;20168;-55
2023/12/21 02:55:51;;;;;;;5.65;4.43;;;8.50;99.90;;;;;;7358435;32;20188;-56
2023/12/21 02:59:53;;;;;;;6.20;4.28;;;8.50;99.90;;;;;;7353946;32;20531;-54
2023/12/21 03:03:55;;;;;;;8.35;4.45;;;8.50;99.90;;;;;;7356761;32;20115;-55
2023/12/21 03:07:57;;;;;;;9.85;4.57;;;8.50;99.90;;;;;;7358572;32;20562;-56
2023/12/21 03:11:58;;;;;;;5.60;4.60;;;8.50;99.90;;;;;;7365540;32;20812;-55
2023/12/21 03:16:07;;;;;;;6.93;4.37;;;8.50;99.90;;;;;;7362908;32;20771;-57
2023/12/21 03:20:10;;;;;;;7.72;4.35;;;8.50;99.90;;;;;;7357860;32;20129;-56
2023/12/21 03:24:12;;;;;;;7.12;4.32;;;8.50;99.90;;;;;;7368925;32;20522;-56
2023/12/21 03:28:14;;;;;;;6.57;4.50;;;8.50;99.90;;;;;;7370007;32;20266;-55
2023/12/21 03:32:16;;;;;;;6.72;4.05;;;8.50;99.90;;;;;;7364547;32;20789;-58
2023/12/21 03:36:18;;;;;;;6.70;4.22;;;8.50;99.90;;;;;;7362496;32;20235;-56
2023/12/21 03:40:19;;;;;;;6.10;4.00;;;8.50;99.90;;;;;;7361122;32;20776;-56
2023/12/21 03:44:21;;;;;;;7.93;4.57;;;8.50;99.90;;;;;;7363573;32;20171;-57
2023/12/21 03:48:23;;;;;;;8.27;4.37;;;8.50;99.90;;;;;;7368125;32;20668;-55
2023/12/21 03:52:25;;;;;;;7.87;4.32;;;8.50;99.90;;;;;;7359107;32;20266;-56
2023/12/21 03:56:27;;;;;;;5.75;3.62;;;8.50;99.90;;;;;;7357461;32;20218;-55
2023/12/21 04:00:28;;;;;;;5.53;3.60;;;8.50;99.90;;;;;;7360257;32;20168;-56
2023/12/21 04:04:32;;;;;;;5.05;3.60;;;8.50;99.90;;;;;;7362389;32;20167;-54
2023/12/21 04:08:33;;;;;;;4.20;3.40;;;8.50;99.90;;;;;;7362249;32;20115;-56
2023/12/21 04:12:35;;;;;;;7.65;3.60;;;8.50;99.90;;;;;;7353614;32;20495;-54
2023/12/21 04:16:38;;;;;;;5.32;3.45;;;8.50;99.90;;;;;;7363595;32;20127;-56
2023/12/21 04:20:40;;;;;;;10.45;4.07;;;8.50;99.90;;;;;;7358763;32;20205;-55
2023/12/21 04:24:41;;;;;;;10.10;4.05;;;8.50;99.90;;;;;;7361635;32;20178;-55
2023/12/21 04:28:43;;;;;;;6.72;3.10;;;8.50;99.90;;;;;;7359133;32;20214;-56
2023/12/21 04:32:45;;;;;;;7.20;3.25;;;8.60;99.90;;;;;;7364081;32;20103;-55
2023/12/21 04:36:47;;;;;;;9.05;3.15;;;8.50;99.90;;;;;;7355834;32;21498;-55
2023/12/21 04:40:49;;;;;;;9.70;3.20;;;8.50;99.90;;;;;;7362351;32;20198;-55
2023/12/21 04:44:50;;;;;;;7.93;3.40;;;8.60;99.90;;;;;;7366221;32;20117;-56
2023/12/21 04:48:52;;;;;;;7.90;3.42;;;8.60;99.90;;;;;;7356814;32;20175;-54
2023/12/21 04:52:54;;;;;;;10.52;2.92;;;8.50;99.90;;;;;;7355860;32;20125;-56
2023/12/21 04:56:55;;;;;;;6.82;2.72;;;8.50;99.90;;;;;;7363139;32;20131;-55
2023/12/21 05:00:57;;;;;;;4.90;2.47;;;8.50;99.90;;;;;;7355230;32;20174;-55
2023/12/21 05:04:59;;;;;;;5.30;2.58;;;8.50;99.90;;;;;;7353127;32;20104;-57
2023/12/21 05:09:01;;;;;;;7.00;2.95;;;8.50;99.90;;;;;;7354909;32;20288;-56
2023/12/21 05:13:03;;;;;;;6.15;2.50;;;8.60;99.90;;;;;;7362685;32;20306;-54
2023/12/21 05:17:05;;;;;;;6.90;3.22;;;8.50;99.90;;;;;;7366069;32;20696;-55
2023/12/21 05:21:09;;;;;;;5.55;2.15;;;8.50;99.90;;;;;;7360256;32;20552;-56
2023/12/21 05:25:11;;;;;;;8.50;2.50;;;8.60;99.90;;;;;;7355529;32;20625;-56
2023/12/21 05:29:13;;;;;;;5.22;2.62;;;8.50;99.90;;;;;;7360487;32;20168;-57
2023/12/21 05:33:15;;;;;;;5.05;2.80;;;8.50;99.90;;;;;;7359443;32;20115;-56
2023/12/21 05:37:17;;;;;;;5.53;2.65;;;8.60;99.90;;;;;;7353344;32;20115;-56
2023/12/21 05:41:18;;;;;;;5.22;2.85;;;8.60;99.90;;;;;;7360580;32;20107;-56
2023/12/21 05:45:20;;;;;;;4.93;3.47;;;8.60;99.90;;;;;;7352137;32;20212;-55
2023/12/21 05:49:22;;;;;;;8.20;2.85;;;8.60;99.90;;;;;;7361488;32;20881;-56
2023/12/21 05:53:24;;;;;;;9.65;3.55;;;8.60;99.90;;;;;;7352306;32;20206;-56
2023/12/21 05:57:26;;;;;;;12.95;3.53;;;8.60;99.90;;;;;;7360930;32;20676;-57
2023/12/21 06:01:28;;;;;;;8.90;3.10;;;8.70;99.90;;;;;;7357458;32;20419;-56
2023/12/21 06:05:32;;;;;;;11.55;4.40;;;8.70;99.90;;;;;;7348758;32;20559;-56
2023/12/21 06:09:33;;;;;;;7.70;3.65;;;8.70;99.90;;;;;;7352385;32;20286;-56
2023/12/21 06:13:35;;;;;;;8.07;3.50;;;8.70;99.90;;;;;;7363523;32;20463;-56
2023/12/21 06:17:37;;;;;;;5.78;3.95;;;8.70;99.90;;;;;;7359172;32;20107;-56
2023/12/21 06:21:39;;;;;;;10.68;4.25;;;8.70;99.90;;;;;;7367544;32;20482;-56
2023/12/21 06:25:41;;;;;;;11.63;3.90;;;8.70;99.90;;;;;;7363221;32;20149;-56
2023/12/21 06:29:43;;;;;;;10.73;4.32;;;8.70;99.90;;;;;;7363308;32;20169;-56
2023/12/21 06:33:44;;;;;;;8.93;4.03;;;8.70;99.90;;;;;;7359657;32;20193;-56
2023/12/21 06:37:46;;;;;;;13.40;4.85;;;8.80;99.90;;;;;;7359598;32;20153;-56
2023/12/21 06:41:49;;;;;;;7.93;4.07;;;8.80;99.90;;;;;;7367303;32;20127;-56
2023/12/21 06:45:51;;;;;;;12.50;4.50;;;8.80;99.90;;;;;;7360844;32;20135;-57
2023/12/21 06:49:53;;;;;;;11.95;4.85;;;8.80;99.90;;;;;;7364624;32;20775;-56
2023/12/21 06:53:54;;;;;;;13.73;4.80;;;8.80;99.90;;;;;;7370579;32;20228;-56
2023/12/21 06:57:56;;;;;;;13.20;4.55;;;8.70;99.90;;;;;;7360357;32;20434;-58
2023/12/21 07:01:58;;;;;;;11.80;4.68;;;8.80;99.90;;;;;;7355960;32;20262;-57
2023/12/21 07:06:00;;;;;;;12.45;4.12;;;8.80;99.90;;;;;;7361909;32;20103;-57
2023/12/21 07:10:01;;;;;;;9.05;3.95;;;8.80;99.90;;;;;;7364879;32;20221;-57
2023/12/21 07:14:03;;;;;;;11.48;4.30;;;8.80;99.90;;;;;;7344019;32;20316;-55
2023/12/21 07:18:05;;;;;;;12.32;4.72;;;8.80;99.90;;;;;;7360886;32;20566;-57
2023/12/21 07:22:07;;;;;;;12.90;4.53;;;8.90;99.90;;;;;;7360191;32;20175;-57
2023/12/21 07:26:10;;;;;;;12.25;4.62;;;8.80;99.90;;;;;;7368523;32;20188;-57
2023/12/21 07:30:12;;;;;;;14.30;4.57;;;8.80;99.90;;;;;;7362645;32;20127;-57
2023/12/21 07:34:14;;;;;;;12.95;4.15;;;8.90;99.90;;;;;;7365558;32;20107;-57
2023/12/21 07:38:16;;;;;;;14.20;4.40;;;8.80;99.90;;;;;;7363299;32;20496;-60
2023/12/21 07:42:18;;;;;;;13.10;4.80;;;8.90;99.90;;;;;;7360741;32;20328;-59
2023/12/21 07:46:21;;;;;;;11.95;4.90;;;8.90;99.90;;;;;;7358809;32;20118;-58
2023/12/21 07:50:23;;;;;;;15.38;5.12;;;8.90;99.90;;;;;;7358933;32;20206;-61
2023/12/21 07:54:25;;;;;;;11.60;4.87;;;8.90;99.90;;;;;;7352004;32;20217;-58
2023/12/21 07:58:27;;;;;;;16.75;5.68;;;8.90;99.90;;;;;;7360548;32;20103;-58
2023/12/21 08:02:28;;;;;;;12.65;5.30;;;8.90;99.90;;;;;;7360435;32;20201;-58
2023/12/21 08:06:30;;;;;;;13.25;6.10;;;8.90;99.90;;;;;;7357007;32;20286;-56
2023/12/21 08:10:32;;;;;;;16.23;5.70;;;9.00;99.90;;;;;;7363441;32;20130;-58
2023/12/21 08:14:37;;;;;;;17.12;5.40;;;8.90;99.90;;;;;;7359123;32;20367;-56
2023/12/21 08:18:39;;;;;;;19.00;4.87;;;8.90;99.90;;;;;;7365386;32;20129;-57
2023/12/21 08:22:41;;;;;;;14.63;4.75;;;9.00;99.90;;;;;;7365529;32;20099;-58
2023/12/21 08:26:44;;;;;;;15.10;4.65;;;8.90;99.90;;;;;;7351592;32;20144;-58
2023/12/21 08:30:45;;;;;;;11.25;4.45;;;9.00;99.90;;;;;;7355700;32;20266;-58
2023/12/21 08:34:47;;;;;;;15.50;4.95;;;9.00;99.90;;;;;;7365911;32;20520;-57
2023/12/21 08:38:49;;;;;;;15.30;5.37;;;9.00;99.90;;;;;;7364089;32;20162;-57
2023/12/21 08:42:51;;;;;;;11.15;4.28;;;9.00;99.90;;;;;;7364512;32;20186;-57
2023/12/21 08:46:53;;;;;;;16.92;4.78;;;9.00;99.90;;;;;;7356568;32;20193;-57
2023/12/21 08:50:55;;;;;;;17.35;4.65;;;9.00;99.90;;;;;;7356813;32;20202;-58
2023/12/21 08:54:57;;;;;;;11.30;4.28;;;9.00;99.90;;;;;;7364851;32;20727;-62
2023/12/21 08:58:59;;;;;;;12.27;3.25;;;9.30;99.90;;;;;;7364061;32;20218;-57
2023/12/21 09:03:00;;;;;;;13.25;3.40;;;9.30;99.90;;;;;;7355307;32;20249;-57
2023/12/21 09:07:02;;;;;;;8.07;3.08;;;9.20;99.90;;;;;;7357926;32;20099;-57
2023/12/21 09:11:05;;;;;;;6.25;3.03;;;9.10;99.90;;;;;;7363814;32;20103;-56
2023/12/21 09:15:08;;;;;;;10.43;2.67;;;9.10;99.90;;;;;;7358841;32;20221;-57
2023/12/21 09:19:10;;;;;;;5.95;2.22;;;9.10;99.90;;;;;;7361940;32;20219;-58
2023/12/21 09:23:13;;;;;;;7.00;2.05;;;9.10;99.90;;;;;;7362690;32;20104;-60
2023/12/21 09:27:14;;;;;;;8.60;1.92;;;9.40;99.90;;;;;;7344225;32;20249;-59
2023/12/21 09:31:17;;;;;;;5.22;1.83;;;9.30;99.90;;;;;;7359823;32;20337;-58
2023/12/21 09:35:20;;;;;;;2.97;1.45;;;9.20;99.90;;;;;;7363576;32;20224;-57
2023/12/21 09:39:22;;;;;;;5.93;1.50;;;9.20;99.90;;;;;;7357784;32;20096;-57
2023/12/21 09:43:23;;;;;;;3.97;1.30;;;9.20;99.90;;;;;;7354991;32;20864;-57
2023/12/21 09:47:29;;;;;;;7.45;1.60;;;9.20;99.90;;;;;;7361354;32;20354;-57
2023/12/21 09:51:33;;;;;;;2.60;0.90;;;9.20;99.90;;;;;;7363253;32;20130;-58
2023/12/21 09:55:37;;;;;;;3.92;1.23;;;9.20;99.90;;;;;;7370806;32;20325;-58
2023/12/21 09:59:38;;;;;;;3.72;1.02;;;9.30;99.90;;;;;;7359898;32;20119;-57
2023/12/21 10:03:40;;;;;;;4.07;1.33;;;9.20;99.90;;;;;;7359502;32;20174;-58
2023/12/21 10:07:42;;;;;;;4.20;0.98;;;9.20;99.90;;;;;;7365849;32;20130;-58
2023/12/21 10:11:44;;;;;;;2.42;0.90;;;9.30;99.90;;;;;;7369095;32;20115;-58
2023/12/21 10:15:46;;;;;;;2.70;0.80;;;9.30;99.90;;;;;;7362813;32;20641;-58
2023/12/21 10:19:48;;;;;;;3.30;1.10;;;9.30;99.90;;;;;;7365269;32;20286;-57
2023/12/21 10:23:50;;;;;;;2.85;0.98;;;9.30;99.90;;;;;;7363871;32;20593;-57
2023/12/21 10:27:53;;;;;;;1.35;0.90;;;9.30;99.90;;;;;;7358678;32;20188;-57
2023/12/21 10:31:56;;;;;;;2.75;1.00;;;9.40;99.90;;;;;;7359277;32;20115;-57
2023/12/21 10:35:58;;;;;;;3.03;1.37;;;9.40;99.90;;;;;;7368060;32;20114;-56
2023/12/21 10:40:00;;;;;;;3.00;1.50;;;9.40;99.90;;;;;;7366942;32;20186;-57
2023/12/21 10:44:02;;;;;;;2.97;1.75;;;9.40;99.90;;;;;;7358855;32;20150;-58
2023/12/21 10:48:08;;;;;;;4.32;1.73;;;9.40;99.90;;;;;;7359592;32;20798;-57
2023/12/21 10:52:11;;;;;;;3.45;2.30;;;9.50;99.90;;;;;;7368180;32;20157;-57
2023/12/21 10:56:13;;;;;;;5.90;2.90;;;9.50;99.90;;;;;;7361933;32;20605;-57
2023/12/21 11:00:15;;;;;;;4.85;3.28;;;9.50;99.90;;;;;;7357499;32;20135;-56
2023/12/21 11:04:19;;;;;;;6.47;4.47;;;9.50;99.90;;;;;;7369300;32;20103;-59
2023/12/21 11:08:22;;;;;;;5.10;3.72;;;9.50;99.90;;;;;;7366438;32;20119;-59
2023/12/21 11:12:24;;;;;;;9.18;3.97;;;9.50;99.90;;;;;;7361970;32;20125;-60
2023/12/21 11:16:32;;;;;;;6.10;4.05;;;9.50;99.90;;;;;;7360544;32;20203;-56
2023/12/21 11:20:48;;;;;;;8.07;4.45;;;9.60;99.90;;;;;;7360037;32;20174;-58
2023/12/21 11:25:04;;;;;;;9.15;4.65;;;9.60;99.90;;;;;;7365977;32;20133;-56
2023/12/21 11:29:07;;;;;;;9.07;4.28;;;9.60;99.90;;;;;;7360980;32;20211;-59
2023/12/21 11:33:10;;;;;;;8.13;4.85;;;9.70;99.90;;;;;;7357981;32;20460;-59
2023/12/21 11:37:22;;;;;;;7.00;3.97;;;9.70;99.90;;;;;;7363627;32;21172;-56
2023/12/21 11:41:24;;;;;;;5.37;3.83;;;9.80;99.90;;;;;;7367227;32;20843;-59
2023/12/21 11:45:30;;;;;;;9.02;3.00;;;9.80;99.90;;;;;;7362847;32;20437;-58
2023/12/21 11:49:32;;;;;;;7.60;3.08;;;9.90;99.90;;;;;;7361868;32;20359;-58
2023/12/21 11:53:38;;;;;;;5.90;2.70;;;10.00;99.90;;;;;;7361251;32;20147;-59
2023/12/21 11:57:47;;;;;;;4.45;2.40;;;10.00;99.90;;;;;;7363546;32;20138;-56
2023/12/21 12:01:49;;;;;;;4.20;2.00;;;10.10;99.90;;;;;;7355449;32;20187;-58
2023/12/21 12:05:54;;;;;;;2.17;1.70;;;10.10;99.90;;;;;;7362984;32;20537;-58
2023/12/21 12:09:56;;;;;;;4.45;1.40;;;10.20;99.90;;;;;;7358081;32;20848;-58
2023/12/21 12:13:58;;;;;;;6.62;1.25;;;10.20;99.90;;;;;;7352320;32;20141;-58
2023/12/21 12:18:00;;;;;;;5.03;1.10;;;10.30;99.90;;;;;;7359403;32;20187;-57
2023/12/21 12:22:02;;;;;;;2.83;0.90;;;10.20;99.90;;;;;;7362171;32;20107;-57
2023/12/21 12:26:04;;;;;;;7.87;1.20;;;10.20;99.90;;;;;;7358296;32;20240;-58
2023/12/21 12:30:07;;;;;;;3.28;0.75;;;10.20;99.90;;;;;;7352600;32;20229;-56
2023/12/21 12:34:09;;;;;;;4.90;1.05;;;10.10;99.90;;;;;;7359401;32;20587;-57
2023/12/21 12:38:11;;;;;;;1.45;0.60;;;10.10;99.90;;;;;;7360025;32;20151;-58
2023/12/21 12:42:13;;;;;;;4.37;0.60;;;10.20;99.90;;;;;;7359612;32;20239;-59
2023/12/21 12:46:15;;;;;;;4.22;0.60;;;10.20;99.90;;;;;;7353739;32;20151;-60
2023/12/21 12:50:20;;;;;;;3.37;0.60;;;10.20;99.90;;;;;;7357735;32;20175;-58
2023/12/21 12:54:21;;;;;;;1.65;0.40;;;10.30;99.90;;;;;;7359315;32;20224;-58
2023/12/21 12:58:24;;;;;;;2.78;0.50;;;10.20;99.90;;;;;;7363521;32;20122;-60
2023/12/21 13:02:28;;;;;;;7.22;0.88;;;10.20;99.90;;;;;;7351157;32;20189;-58
2023/12/21 13:06:30;;;;;;;4.20;0.50;;;10.30;99.90;;;;;;7360514;32;20123;-58
2023/12/21 13:10:32;;;;;;;4.10;0.90;;;10.30;99.90;;;;;;7358732;32;20261;-59
2023/12/21 13:14:34;;;;;;;3.83;0.57;;;10.30;99.90;;;;;;7360684;32;20234;-61
2023/12/21 13:18:36;;;;;;;2.65;0.68;;;10.50;99.90;;;;;;7355471;32;20113;-58
2023/12/21 13:22:39;;;;;;;2.05;0.50;;;10.60;99.90;;;;;;7356945;32;20133;-59
2023/12/21 13:26:41;;;;;;;3.10;0.40;;;10.70;99.90;;;;;;7364246;32;20099;-58
2023/12/21 13:30:42;;;;;;;1.35;0.60;;;10.60;99.90;;;;;;7357795;32;20668;-57
2023/12/21 13:34:44;;;;;;;2.60;0.62;;;10.70;99.90;;;;;;7361005;32;20126;-58
2023/12/21 13:38:47;;;;;;;3.78;0.50;;;10.60;99.90;;;;;;7354938;32;20100;-59
2023/12/21 13:42:49;;;;;;;2.33;0.43;;;10.60;99.90;;;;;;7353203;32;20106;-59
2023/12/21 13:46:52;;;;;;;1.98;0.57;;;10.60;99.90;;;;;;7362286;32;20139;-58
2023/12/21 13:50:53;;;;;;;1.62;0.52;;;10.60;99.90;;;;;;7359772;32;20106;-60
2023/12/21 13:54:55;;;;;;;2.58;0.40;;;10.70;99.90;;;;;;7357422;32;20462;-59
2023/12/21 13:58:57;;;;;;;2.55;0.57;;;10.70;99.90;;;;;;7359657;32;20111;-58
2023/12/21 14:02:59;;;;;;;2.33;0.50;;;10.60;99.90;;;;;;7357598;32;20729;-58
2023/12/21 14:07:01;;;;;;;2.03;0.47;;;10.60;99.90;;;;;;7356558;32;20125;-57
2023/12/21 14:11:03;;;;;;;2.50;0.37;;;10.50;99.90;;;;;;7349212;32;20335;-63
2023/12/21 14:15:05;;;;;;;5.03;0.60;;;10.60;99.90;;;;;;7355171;32;20107;-57
2023/12/21 14:19:07;;;;;;;1.85;0.60;;;10.60;99.90;;;;;;7361056;32;20584;-57
2023/12/21 14:23:09;;;;;;;1.90;0.32;;;10.50;99.90;;;;;;7356570;32;20260;-57
2023/12/21 14:27:10;;;;;;;4.65;0.60;;;10.40;99.90;;;;;;7359117;32;20125;-58
2023/12/21 14:31:12;;;;;;;5.97;0.68;;;10.30;99.90;;;;;;7350430;32;20131;-58
2023/12/21 14:35:14;;;;;;;3.35;0.70;;;10.40;99.90;;;;;;7360968;32;20127;-59
2023/12/21 14:39:16;;;;;;;4.15;0.60;;;10.30;99.90;;;;;;7362483;32;20106;-57
2023/12/21 14:43:18;;;;;;;3.03;0.68;;;10.20;99.90;;;;;;7362233;32;20239;-58
2023/12/21 14:47:20;;;;;;;3.70;0.62;;;10.20;99.90;;;;;;7358409;32;20532;-58
2023/12/21 14:51:22;;;;;;;2.05;0.65;;;10.10;99.90;;;;;;7352049;32;20158;-56
2023/12/21 14:55:23;;;;;;;4.25;0.77;;;10.00;99.90;;;;;;7363484;32;20528;-59
2023/12/21 14:59:26;;;;;;;6.35;1.02;;;10.00;99.90;;;;;;7360746;32;20320;-58
2023/12/21 15:03:30;;;;;;;5.35;0.80;;;9.90;99.90;;;;;;7355796;32;20179;-57
2023/12/21 15:07:31;;;;;;;8.48;1.12;;;9.90;99.90;;;;;;7362121;32;20151;-57
2023/12/21 15:11:33;;;;;;;4.68;0.75;;;9.90;99.90;;;;;;7363645;32;20102;-57
2023/12/21 15:15:35;;;;;;;5.62;1.00;;;9.90;99.90;;;;;;7361776;32;20194;-59
2023/12/21 15:19:37;;;;;;;7.43;1.00;;;9.90;99.90;;;;;;7362673;32;20245;-58
2023/12/21 15:23:39;;;;;;;4.72;0.98;;;9.80;99.90;;;;;;7356169;32;20111;-58
2023/12/21 15:27:41;;;;;;;7.18;1.10;;;9.90;99.90;;;;;;7357251;32;20166;-58
2023/12/21 15:31:43;;;;;;;5.03;0.75;;;9.90;99.90;;;;;;7356925;32;20158;-57
2023/12/21 15:35:45;;;;;;;9.73;1.23;;;9.80;99.90;;;;;;7358831;32;20206;-57
2023/12/21 15:39:47;;;;;;;5.05;0.90;;;9.80;99.90;;;;;;7342614;32;20263;-57
2023/12/21 15:43:50;;;;;;;9.93;1.25;;;9.70;99.90;;;;;;7358876;32;20490;-57
2023/12/21 15:47:52;;;;;;;9.35;1.10;;;9.60;99.90;;;;;;7359150;32;20275;-58
2023/12/21 15:51:53;;;;;;;2.97;0.93;;;9.50;99.90;;;;;;7356918;32;20107;-58
2023/12/21 15:55:55;;;;;;;9.55;1.30;;;9.40;99.90;;;;;;7361652;32;20125;-58
2023/12/21 15:59:57;;;;;;;6.43;0.90;;;9.30;99.90;;;;;;7356917;32;20265;-57
2023/12/21 16:03:59;;;;;;;8.07;1.23;;;8.80;99.90;;;;;;7368779;32;20162;-57
2023/12/21 16:08:00;;;;;;;8.32;1.35;;;8.70;99.90;;;;;;7354986;32;20127;-57
2023/12/21 16:12:03;;;;;;;5.78;1.00;;;8.70;99.90;;;;;;7359498;32;20099;-58
2023/12/21 16:16:05;;;;;;;10.60;1.20;;;8.70;99.90;;;;;;7356477;32;20762;-58
2023/12/21 16:20:07;;;;;;;8.50;1.20;;;8.70;99.90;;;;;;7360357;32;20140;-57
2023/12/21 16:24:10;;;;;;;5.82;1.60;;;8.80;99.90;;;;;;7359525;32;20103;-57
2023/12/21 16:28:11;;;;;;;6.68;1.10;;;8.90;99.90;;;;;;7363062;32;20125;-57
2023/12/21 16:32:13;;;;;;;7.45;1.27;;;8.70;99.90;;;;;;7361468;32;20118;-60
2023/12/21 16:36:16;;;;;;;5.78;1.08;;;8.40;99.90;;;;;;7363967;32;20142;-58
2023/12/21 16:40:19;;;;;;;3.50;1.10;;;8.20;99.90;;;;;;7361792;32;20222;-57
2023/12/21 16:44:22;;;;;;;6.50;1.05;;;8.20;99.90;;;;;;7358317;32;20310;-56
2023/12/21 16:48:24;;;;;;;7.15;1.30;;;8.20;99.90;;;;;;7362899;32;20210;-56
2023/12/21 16:52:26;;;;;;;12.77;1.50;;;8.30;99.90;;;;;;7359050;32;20186;-58
2023/12/21 16:56:28;;;;;;;8.35;1.10;;;8.30;99.90;;;;;;7358355;32;20595;-55
2023/12/21 17:00:31;;;;;;;10.23;1.70;;;8.50;99.90;;;;;;7359464;32;20767;-56
2023/12/21 17:04:34;;;;;;;10.15;1.50;;;8.50;99.90;;;;;;7364208;32;21024;-56
2023/12/21 17:08:36;;;;;;;7.25;2.03;;;8.60;99.90;;;;;;7358006;32;20217;-58
2023/12/21 17:12:38;;;;;;;10.80;2.05;;;8.70;99.90;;;;;;7359576;32;20241;-58
2023/12/21 17:16:40;;;;;;;13.20;2.58;;;8.60;99.90;;;;;;7359266;32;20373;-58
2023/12/21 17:20:47;;;;;;;9.43;1.58;;;8.50;99.90;;;;;;7359757;32;20719;-58
2023/12/21 17:24:49;;;;;;;11.50;1.70;;;8.50;99.90;;;;;;7357893;32;20206;-58
2023/12/21 17:28:50;;;;;;;11.55;1.90;;;8.50;99.90;;;;;;7354132;32;20099;-56
2023/12/21 17:32:52;;;;;;;8.90;1.40;;;8.60;99.90;;;;;;7355893;32;20123;-56
2023/12/21 17:36:54;;;;;;;9.88;1.35;;;8.70;99.90;;;;;;7358869;32;20378;-58
2023/12/21 17:40:56;;;;;;;8.25;1.20;;;8.80;99.90;;;;;;7362866;32;20888;-57
2023/12/21 17:44:58;;;;;;;6.95;1.23;;;8.80;99.90;;;;;;7358376;32;20337;-56
2023/12/21 17:49:00;;;;;;;13.02;1.83;;;8.80;99.90;;;;;;7363541;32;20115;-57
2023/12/21 17:53:02;;;;;;;7.80;1.85;;;8.60;99.90;;;;;;7358526;32;20103;-55
2023/12/21 17:57:04;;;;;;;9.93;2.15;;;8.50;99.90;;;;;;7359616;32;20098;-56
2023/12/21 18:01:05;;;;;;;16.02;1.85;;;8.30;99.90;;;;;;7360887;32;20588;-57
2023/12/21 18:05:08;;;;;;;12.85;2.03;;;8.20;99.90;;;;;;7361406;32;20817;-57
2023/12/21 18:09:10;;;;;;;14.85;1.95;;;8.00;99.90;;;;;;7359046;32;20249;-55
2023/12/21 18:13:12;;;;;;;15.82;2.30;;;8.00;99.90;;;;;;7357004;32;20342;-55
2023/12/21 18:17:14;;;;;;;7.57;1.30;;;8.00;99.90;;;;;;7362854;32;20119;-56
2023/12/21 18:21:16;;;;;;;10.85;2.58;;;7.80;99.90;;;;;;7362333;32;20122;-57
2023/12/21 18:25:17;;;;;;;4.00;1.00;;;6.70;99.90;;;;;;7366904;32;20618;-55
2023/12/21 18:29:20;;;;;;;4.93;1.10;;;5.80;99.90;;;;;;7368789;32;20102;-57
2023/12/21 18:33:25;;;;;;;4.28;1.12;;;5.50;99.90;;;;;;7364333;32;20178;-57
2023/12/21 18:37:27;;;;;;;4.12;1.20;;;5.30;99.90;;;;;;7356473;32;20514;-56
2023/12/21 18:41:29;;;;;;;9.43;1.60;;;5.20;99.90;;;;;;7361859;32;20213;-56
2023/12/21 18:45:31;;;;;;;5.30;0.85;;;5.20;99.90;;;;;;7361375;32;20525;-57
2023/12/21 18:49:32;;;;;;;7.12;1.17;;;5.20;99.90;;;;;;7363804;32;20206;-57
2023/12/21 18:53:34;;;;;;;4.53;1.27;;;5.30;99.90;;;;;;7365357;32;20198;-57
2023/12/21 18:57:36;;;;;;;5.12;1.10;;;5.30;99.90;;;;;;7358477;32;20557;-56
2023/12/21 19:01:38;;;;;;;7.53;1.40;;;5.40;99.90;;;;;;7362800;32;20545;-58
2023/12/21 19:05:45;;;;;;;5.05;1.65;;;5.40;99.90;;;;;;7362852;32;20157;-57
2023/12/21 19:09:47;;;;;;;6.20;1.83;;;5.40;99.90;;;;;;7366613;32;20263;-58
2023/12/21 19:13:49;;;;;;;5.03;1.33;;;5.40;99.90;;;;;;7362822;32;20234;-57
2023/12/21 19:17:51;;;;;;;5.05;0.77;;;5.40;99.90;;;;;;7361876;32;20146;-58
2023/12/21 19:21:56;;;;;;;4.03;0.70;;;5.30;99.90;;;;;;7360747;32;20115;-57
2023/12/21 19:25:57;;;;;;;8.40;1.48;;;5.30;99.90;;;;;;7362607;32;20123;-57
2023/12/21 19:29:59;;;;;;;7.50;1.98;;;5.30;99.90;;;;;;7356535;32;20205;-58
2023/12/21 19:34:14;;;;;;;9.55;1.10;;;5.30;99.90;;;;;;7365606;32;20211;-61
2023/12/21 19:38:16;;;;;;;6.43;1.17;;;5.70;99.90;;;;;;7359927;32;20125;-57
2023/12/21 19:42:18;;;;;;;10.68;1.17;;;5.70;99.90;;;;;;7355790;32;20681;-58
2023/12/21 19:46:20;;;;;;;11.77;1.80;;;5.70;99.90;;;;;;7359123;32;20530;-57
2023/12/21 19:50:22;;;;;;;14.82;1.70;;;5.70;99.90;;;;;;7359484;32;20111;-56
2023/12/21 19:54:24;;;;;;;10.45;1.50;;;5.80;99.90;;;;;;7355100;32;20117;-55
2023/12/21 19:58:26;;;;;;;9.30;2.65;;;5.80;99.90;;;;;;7359394;32;20170;-57
2023/12/21 20:02:28;;;;;;;14.02;2.50;;;5.90;99.90;;;;;;7364086;32;20206;-57
2023/12/21 20:06:30;;;;;;;15.23;3.45;;;6.00;99.90;;;;;;7356254;32;20194;-57
2023/12/21 20:10:32;;;;;;;9.98;2.45;;;6.00;99.90;;;;;;7359599;32;20149;-57
2023/12/21 20:14:34;;;;;;;14.95;3.03;;;6.10;99.90;;;;;;7365602;32;20502;-57
2023/12/21 20:18:38;;;;;;;12.07;2.70;;;6.20;99.90;;;;;;7358673;32;20326;-57
2023/12/21 20:22:41;;;;;;;12.32;2.22;;;6.20;99.90;;;;;;7359348;32;20189;-56
2023/12/21 20:26:43;;;;;;;15.27;2.42;;;6.30;99.90;;;;;;7360842;32;20098;-56
2023/12/21 20:30:44;;;;;;;20.40;1.95;;;6.30;99.90;;;;;;7355722;32;21416;-57
2023/12/21 20:34:46;;;;;;;14.23;1.92;;;6.30;99.90;;;;;;7355201;32;20732;-57
2023/12/21 20:38:48;;;;;;;8.68;1.37;;;6.30;99.90;;;;;;7353948;32;20111;-57
2023/12/21 20:42:50;;;;;;;12.32;1.40;;;6.30;99.90;;;;;;7355783;32;20304;-56
2023/12/21 20:46:52;;;;;;;8.68;1.73;;;6.30;99.90;;;;;;7354932;32;20504;-57
2023/12/21 20:50:55;;;;;;;11.20;1.55;;;6.30;99.90;;;;;;7356846;32;20112;-57
2023/12/21 20:54:57;;;;;;;7.40;1.50;;;6.30;99.90;;;;;;7358628;32;20190;-56
2023/12/21 20:58:59;;;;;;;11.30;1.42;;;6.30;99.90;;;;;;7362793;32;20129;-57
2023/12/21 21:03:01;;;;;;;12.30;1.55;;;6.40;99.90;;;;;;7358824;32;20234;-56
2023/12/21 21:07:04;;;;;;;9.82;1.45;;;6.40;99.90;;;;;;7357115;32;20130;-55
2023/12/21 21:11:06;;;;;;;17.10;1.83;;;6.50;99.90;;;;;;7351263;32;20142;-56